createdAt,value
2023-04-04T00:01:53.919Z,1.2
2023-04-04T00:04:19.801Z,1.2
2023-04-04T00:06:46.099Z,1.2
2023-04-04T00:09:11.067Z,1.3
2023-04-04T00:11:37.254Z,1.2
2023-04-04T00:14:03.343Z,1.1
2023-04-04T00:16:29.301Z,1.2
2023-04-04T00:18:55.405Z,1.1
2023-04-04T00:21:21.663Z,1
2023-04-04T00:23:47.607Z,1
2023-04-04T00:26:13.747Z,1
2023-04-04T00:28:39.928Z,1
2023-04-04T00:31:05.900Z,1
2023-04-04T00:33:32.162Z,1
2023-04-04T00:35:58.139Z,1
2023-04-04T00:38:24.366Z,0.9
2023-04-04T00:40:49.331Z,0.9
2023-04-04T00:43:15.620Z,0.9
2023-04-04T00:45:41.709Z,0.9
2023-04-04T00:48:07.715Z,0.8
2023-04-04T00:50:32.717Z,0.7
2023-04-04T00:52:58.986Z,0.7
2023-04-04T00:55:25.041Z,0.7
2023-04-04T00:57:51.164Z,0.6
2023-04-04T01:00:17.175Z,0.7
2023-04-04T01:02:43.220Z,0.6
2023-04-04T01:05:09.312Z,0.6
2023-04-04T01:07:35.408Z,0.6
2023-04-04T01:10:01.526Z,0.5
2023-04-04T01:12:27.685Z,0.5
2023-04-04T01:14:53.839Z,0.4
2023-04-04T01:17:19.948Z,0.4
2023-04-04T01:19:45.889Z,0.5
2023-04-04T01:22:11.152Z,0.3
2023-04-04T01:24:37.260Z,0.4
2023-04-04T01:27:03.214Z,0.4
2023-04-04T01:29:29.431Z,0.3
2023-04-04T01:31:55.392Z,0.4
2023-04-04T01:34:21.606Z,0.3
2023-04-04T01:36:47.623Z,0.2
2023-04-04T01:39:13.854Z,0.2
2023-04-04T01:41:39.791Z,0.1
2023-04-04T01:44:05.880Z,0.1
2023-04-04T01:46:31.993Z,0.1
2023-04-04T01:48:58.239Z,0
2023-04-04T01:51:24.231Z,0
2023-04-04T01:53:49.424Z,0
2023-04-04T01:56:15.600Z,0
2023-04-04T01:58:41.630Z,0.1
2023-04-04T02:01:07.682Z,0.1
2023-04-04T02:03:33.860Z,0.1
2023-04-04T02:05:59.807Z,0
2023-04-04T02:08:26.042Z,0
2023-04-04T02:10:52.085Z,0
2023-04-04T02:13:18.063Z,-0.1
2023-04-04T02:15:44.310Z,-0.1
2023-04-04T02:18:10.421Z,-0.1
2023-04-04T02:20:36.363Z,0
2023-04-04T02:23:02.471Z,-0.1
2023-04-04T02:25:27.617Z,-0.1
2023-04-04T02:27:53.847Z,-0.1
2023-04-04T02:30:19.928Z,-0.1
2023-04-04T02:32:45.999Z,-0.2
2023-04-04T02:35:12.160Z,-0.1
2023-04-04T02:37:40.503Z,-0.2
2023-04-04T02:40:04.300Z,-0.3
2023-04-04T02:42:30.318Z,-0.2
2023-04-04T02:44:56.483Z,-0.3
2023-04-04T02:47:22.530Z,-0.4
2023-04-04T02:49:48.656Z,-0.4
2023-04-04T02:52:14.635Z,-0.4
2023-04-04T02:54:40.967Z,-0.5
2023-04-04T02:57:05.883Z,-0.6
2023-04-04T02:59:31.998Z,-0.7
2023-04-04T03:01:58.196Z,-0.7
2023-04-04T03:04:24.365Z,-0.8
2023-04-04T03:06:50.463Z,-0.8
2023-04-04T03:09:16.566Z,-0.7
2023-04-04T03:11:42.445Z,-0.8
2023-04-04T03:14:08.710Z,-0.8
2023-04-04T03:16:34.679Z,-0.8
2023-04-04T03:19:00.890Z,-0.8
2023-04-04T03:21:26.825Z,-0.8
2023-04-04T03:23:53.076Z,-0.7
2023-04-04T03:26:19.146Z,-0.8
2023-04-04T03:29:05.781Z,-0.7
2023-04-04T03:31:10.249Z,-0.8
2023-04-04T03:33:36.319Z,-0.7
2023-04-04T03:36:02.571Z,-0.7
2023-04-04T03:38:28.670Z,-0.8
2023-04-04T03:40:55.115Z,-0.8
2023-04-04T03:43:20.864Z,-0.9
2023-04-04T03:45:46.977Z,-1
2023-04-04T03:48:13.068Z,-1
2023-04-04T03:50:39.002Z,-0.9
2023-04-04T03:53:05.221Z,-1
2023-04-04T03:55:31.366Z,-1
2023-04-04T03:57:57.434Z,-1.1
2023-04-04T04:00:22.470Z,-1.1
2023-04-04T04:02:48.503Z,-1.1
2023-04-04T04:05:14.602Z,-1
2023-04-04T04:07:40.837Z,-1
2023-04-04T04:10:06.801Z,-1.1
2023-04-04T04:12:33.010Z,-1.2
2023-04-04T04:14:59.143Z,-1.2
2023-04-04T04:17:25.085Z,-1.2
2023-04-04T04:19:51.344Z,-1.3
2023-04-04T04:22:17.393Z,-1.3
2023-04-04T04:24:43.545Z,-1.2
2023-04-04T04:27:09.590Z,-1.3
2023-04-04T04:29:35.585Z,-1.3
2023-04-04T04:32:00.790Z,-1.4
2023-04-04T04:34:26.947Z,-1.4
2023-04-04T04:36:53.045Z,-1.4
2023-04-04T04:39:19.144Z,-1.3
2023-04-04T04:41:45.081Z,-1.4
2023-04-04T04:44:11.187Z,-1.3
2023-04-04T04:46:37.452Z,-1.3
2023-04-04T04:49:03.582Z,-1.3
2023-04-04T04:51:29.627Z,-1.2
2023-04-04T04:53:55.637Z,-1.2
2023-04-04T04:56:21.845Z,-1.3
2023-04-04T04:58:47.861Z,-1.3
2023-04-04T05:01:13.890Z,-1.3
2023-04-04T05:03:39.959Z,-1.3
2023-04-04T05:06:06.246Z,-1.3
2023-04-04T05:08:31.337Z,-1.3
2023-04-04T05:10:57.363Z,-1.4
2023-04-04T05:13:23.382Z,-1.4
2023-04-04T05:15:49.507Z,-1.2
2023-04-04T05:18:15.792Z,-1.2
2023-04-04T05:20:41.651Z,-1.3
2023-04-04T05:23:07.871Z,-1.2
2023-04-04T05:25:34.041Z,-1.2
2023-04-04T05:28:00.161Z,-1.2
2023-04-04T05:30:26.134Z,-1.2
2023-04-04T05:32:52.315Z,-1
2023-04-04T05:35:18.418Z,-0.9
2023-04-04T05:37:44.501Z,-0.8
2023-04-04T05:40:09.541Z,-0.7
2023-04-04T05:42:35.703Z,-0.6
2023-04-04T05:45:01.678Z,-0.5
2023-04-04T05:47:27.829Z,-0.4
2023-04-04T05:49:54.044Z,-0.4
2023-04-04T05:52:19.993Z,-0.2
2023-04-04T05:54:46.258Z,-0.2
2023-04-04T05:57:12.241Z,-0.1
2023-04-04T05:59:38.419Z,0
2023-04-04T06:02:04.485Z,-0.1
2023-04-04T06:04:30.657Z,0
2023-04-04T06:06:56.780Z,0.1
2023-04-04T06:09:22.838Z,0.1
2023-04-04T06:11:48.739Z,0.2
2023-04-04T06:14:14.978Z,0.2
2023-04-04T06:16:40.128Z,0.3
2023-04-04T06:19:06.174Z,0.4
2023-04-04T06:21:32.340Z,0.5
2023-04-04T06:23:58.402Z,0.5
2023-04-04T06:26:24.459Z,0.6
2023-04-04T06:28:50.675Z,0.6
2023-04-04T06:31:16.689Z,0.7
2023-04-04T06:33:42.760Z,0.8
2023-04-04T06:36:08.712Z,0.9
2023-04-04T06:38:34.831Z,0.9
2023-04-04T06:41:01.040Z,1
2023-04-04T06:43:27.044Z,1.1
2023-04-04T06:45:53.120Z,1.1
2023-04-04T06:48:18.214Z,1.2
2023-04-04T06:50:44.438Z,1.2
2023-04-04T06:53:10.539Z,1.3
2023-04-04T06:55:36.520Z,1.4
2023-04-04T06:58:02.810Z,1.5
2023-04-04T07:00:28.750Z,1.5
2023-04-04T07:02:54.816Z,1.7
2023-04-04T07:05:20.929Z,1.8
2023-04-04T07:07:47.072Z,1.8
2023-04-04T07:10:13.108Z,2
2023-04-04T07:12:39.193Z,2.1
2023-04-04T07:15:05.312Z,2.3
2023-04-04T07:17:31.400Z,2.4
2023-04-04T07:19:56.508Z,2.5
2023-04-04T07:22:22.664Z,2.6
2023-04-04T07:24:48.714Z,2.7
2023-04-04T07:27:14.807Z,2.8
2023-04-04T07:29:40.948Z,2.9
2023-04-04T07:34:33.094Z,3
2023-04-04T07:36:59.201Z,3.1
2023-04-04T07:39:25.318Z,3.2
2023-04-04T07:41:51.407Z,3.3
2023-04-04T07:44:17.477Z,3.4
2023-04-04T07:46:43.588Z,3.5
2023-04-04T07:49:09.682Z,3.5
2023-04-04T07:51:34.784Z,3.7
2023-04-04T07:54:00.905Z,3.8
2023-04-04T07:56:27.007Z,3.9
2023-04-04T07:58:53.082Z,4
2023-04-04T08:01:19.182Z,4
2023-04-04T08:03:45.266Z,4.1
2023-04-04T08:06:11.375Z,4.1
2023-04-04T08:08:37.477Z,4.2
2023-04-04T08:11:03.583Z,4.3
2023-04-04T08:13:29.712Z,4.3
2023-04-04T08:15:55.913Z,4.3
2023-04-04T08:18:21.866Z,4.4
2023-04-04T08:20:47.944Z,4.4
2023-04-04T08:23:13.108Z,4.3
2023-04-04T08:25:39.236Z,4.3
2023-04-04T08:28:05.425Z,4.4
2023-04-04T08:30:31.346Z,4.5
2023-04-04T08:32:57.498Z,4.7
2023-04-04T08:35:23.534Z,4.7
2023-04-04T08:37:49.715Z,4.9
2023-04-04T08:40:15.738Z,4.8
2023-04-04T08:42:42.015Z,4.9
2023-04-04T08:45:07.937Z,4.9
2023-04-04T08:47:34.047Z,4.8
2023-04-04T08:50:00.124Z,4.9
2023-04-04T08:52:26.282Z,5.1
2023-04-04T08:54:52.320Z,5.2
2023-04-04T08:57:18.470Z,5.3
2023-04-04T08:59:44.518Z,5.3
2023-04-04T09:02:09.721Z,5.4
2023-04-04T09:04:35.790Z,5.5
2023-04-04T09:07:01.869Z,5.6
2023-04-04T09:09:27.914Z,5.9
2023-04-04T09:11:54.062Z,6.1
2023-04-04T09:14:20.171Z,6.2
2023-04-04T09:16:46.255Z,6.2
2023-04-04T09:19:12.428Z,6.1
2023-04-04T09:21:38.657Z,6.2
2023-04-04T09:24:04.650Z,6.4
2023-04-04T09:26:30.631Z,6.3
2023-04-04T09:28:56.728Z,6.2
2023-04-04T09:31:22.832Z,6.2
2023-04-04T09:33:49.031Z,6.1
2023-04-04T09:36:15.119Z,6.1
2023-04-04T09:38:41.234Z,5.9
2023-04-04T09:41:07.418Z,6
2023-04-04T09:43:33.437Z,6.1
2023-04-04T09:45:59.493Z,6.1
2023-04-04T09:48:25.583Z,6.1
2023-04-04T09:50:51.725Z,6.1
2023-04-04T09:53:17.836Z,6.3
2023-04-04T09:55:44.043Z,6.4
2023-04-04T09:58:09.954Z,6.5
2023-04-04T10:00:36.103Z,6.6
2023-04-04T10:03:02.164Z,6.6
2023-04-04T10:05:27.274Z,6.6
2023-04-04T10:07:53.409Z,6.5
2023-04-04T10:10:19.491Z,6.5
2023-04-04T10:12:45.749Z,6.7
2023-04-04T10:15:11.714Z,7
2023-04-04T10:17:37.744Z,7.1
2023-04-04T10:20:03.816Z,7.2
2023-04-04T10:22:30.078Z,7
2023-04-04T10:24:56.013Z,7
2023-04-04T10:27:22.114Z,7.1
2023-04-04T10:29:48.223Z,7.1
2023-04-04T10:32:14.333Z,6.9
2023-04-04T10:34:40.453Z,6.9
2023-04-04T10:37:05.519Z,7
2023-04-04T10:39:31.635Z,7.1
2023-04-04T10:41:57.718Z,7.1
2023-04-04T10:44:23.896Z,7.2
2023-04-04T10:46:49.909Z,7
2023-04-04T10:49:15.992Z,6.9
2023-04-04T10:51:42.092Z,7
2023-04-04T10:54:08.190Z,7.1
2023-04-04T10:56:34.301Z,7.3
2023-04-04T10:59:00.389Z,7.4
2023-04-04T11:01:26.528Z,7.4
2023-04-04T11:03:52.577Z,7.7
2023-04-04T11:06:18.669Z,7.8
2023-04-04T11:08:43.794Z,7.9
2023-04-04T11:11:09.873Z,7.8
2023-04-04T11:13:35.967Z,7.6
2023-04-04T11:16:02.069Z,7.7
2023-04-04T11:18:28.189Z,7.8
2023-04-04T11:20:54.277Z,7.9
2023-04-04T11:23:20.373Z,7.9
2023-04-04T11:25:46.453Z,7.9
2023-04-04T11:28:12.558Z,7.9
2023-04-04T11:30:38.680Z,8
2023-04-04T11:33:04.743Z,8
2023-04-04T11:35:30.836Z,8.2
2023-04-04T11:37:56.926Z,8.5
2023-04-04T11:40:22.067Z,8.6
2023-04-04T11:42:48.152Z,8.7
2023-04-04T11:45:14.244Z,8.7
2023-04-04T11:47:40.343Z,8.7
2023-04-04T11:50:06.491Z,8.9
2023-04-04T11:54:58.613Z,8.8
2023-04-04T11:57:24.719Z,8.6
2023-04-04T11:59:50.823Z,8.6
2023-04-04T12:02:16.906Z,8.6
2023-04-04T12:04:42.979Z,8.6
2023-04-04T12:07:09.101Z,8.6
2023-04-04T12:09:35.404Z,8.6
2023-04-04T12:12:00.476Z,8.8
2023-04-04T12:14:26.555Z,8.8
2023-04-04T12:16:52.606Z,9.1
2023-04-04T12:19:18.683Z,9.3
2023-04-04T12:21:44.692Z,9.4
2023-04-04T12:24:11.001Z,9.5
2023-04-04T12:26:36.999Z,9.5
2023-04-04T12:29:03.160Z,9.5
2023-04-04T12:31:29.159Z,9.6
2023-04-04T12:33:55.265Z,9.6
2023-04-04T12:36:21.271Z,9.5
2023-04-04T12:38:47.489Z,9.5
2023-04-04T12:41:13.576Z,9.5
2023-04-04T12:43:38.697Z,9.6
2023-04-04T12:46:04.843Z,9.8
2023-04-04T12:48:30.929Z,9.9
2023-04-04T12:50:57.139Z,9.9
2023-04-04T12:53:22.950Z,9.8
2023-04-04T12:55:49.190Z,10
2023-04-04T12:58:15.140Z,10.1
2023-04-04T13:00:41.398Z,10.1
2023-04-04T13:03:07.484Z,10.2
2023-04-04T13:05:33.484Z,10.2
2023-04-04T13:07:59.723Z,10.2
2023-04-04T13:10:25.800Z,10.2
2023-04-04T13:12:51.879Z,10.2
2023-04-04T13:15:17.094Z,10.2
2023-04-04T13:17:43.108Z,10.2
2023-04-04T13:20:09.168Z,10.2
2023-04-04T13:22:35.281Z,10.3
2023-04-04T13:25:01.346Z,10.4
2023-04-04T13:27:27.452Z,10.5
2023-04-04T13:29:53.568Z,10.7
2023-04-04T13:32:19.684Z,10.5
2023-04-04T13:34:45.702Z,10.5
2023-04-04T13:37:11.725Z,10.3
2023-04-04T13:39:37.942Z,10.5
2023-04-04T13:42:04.042Z,10.8
2023-04-04T13:44:30.122Z,10.8
2023-04-04T13:46:55.090Z,10.8
2023-04-04T13:49:21.373Z,10.9
2023-04-04T13:51:47.424Z,10.8
2023-04-04T13:54:13.538Z,10.8
2023-04-04T13:56:39.571Z,10.8
2023-04-04T13:59:05.763Z,11
2023-04-04T14:01:31.809Z,11.2
2023-04-04T14:03:57.888Z,11.2
2023-04-04T14:06:24.027Z,12.2
2023-04-04T14:08:49.942Z,12.9
2023-04-04T14:11:16.228Z,12.7
2023-04-04T14:13:42.332Z,13.6
2023-04-04T14:16:08.458Z,14.5
2023-04-04T14:18:33.339Z,14.2
2023-04-04T14:20:59.620Z,13.3
2023-04-04T14:23:25.530Z,14.2
2023-04-04T14:25:51.795Z,14.6
2023-04-04T14:28:17.888Z,14.3
2023-04-04T14:30:43.996Z,13.4
2023-04-04T14:33:10.134Z,13.6
2023-04-04T14:35:36.003Z,13.8
2023-04-04T14:38:02.286Z,13.9
2023-04-04T14:40:28.399Z,14.5
2023-04-04T14:42:54.458Z,14.6
2023-04-04T14:45:20.602Z,15.1
2023-04-04T14:47:46.649Z,15.1
2023-04-04T14:50:11.791Z,15.2
2023-04-04T14:52:37.853Z,14.9
2023-04-04T14:55:03.967Z,15.1
2023-04-04T14:57:30.100Z,15.3
2023-04-04T14:59:56.158Z,14.9
2023-04-04T15:02:22.290Z,14.8
2023-04-04T15:04:48.352Z,14.3
2023-04-04T15:07:14.441Z,12.6
2023-04-04T15:09:40.560Z,11.2
2023-04-04T15:12:06.641Z,12.1
2023-04-04T15:14:32.738Z,12.8
2023-04-04T15:16:59.064Z,13.5
2023-04-04T15:19:24.914Z,13.9
2023-04-04T15:21:49.982Z,13.6
2023-04-04T15:24:16.135Z,14.6
2023-04-04T15:26:42.125Z,14.9
2023-04-04T15:29:08.271Z,14.3
2023-04-04T15:31:34.247Z,14.3
2023-04-04T15:34:00.623Z,14.6
2023-04-04T15:36:26.576Z,14.8
2023-04-04T15:38:52.719Z,14.6
2023-04-04T15:41:18.825Z,14.4
2023-04-04T15:43:44.884Z,13.6
2023-04-04T15:46:11.004Z,13
2023-04-04T15:48:37.075Z,13.4
2023-04-04T15:51:03.169Z,13.3
2023-04-04T15:53:28.270Z,13.3
2023-04-04T15:55:54.371Z,13.1
2023-04-04T15:58:20.452Z,13.7
2023-04-04T16:00:46.381Z,13.5
2023-04-04T16:03:12.647Z,13.7
2023-04-04T16:05:38.774Z,13.9
2023-04-04T16:08:04.840Z,13.7
2023-04-04T16:10:30.765Z,13.6
2023-04-04T16:12:57.083Z,13.6
2023-04-04T16:15:23.111Z,13.4
2023-04-04T16:17:49.273Z,13.1
2023-04-04T16:20:15.406Z,13
2023-04-04T16:22:41.440Z,12.9
2023-04-04T16:25:06.502Z,13
2023-04-04T16:27:32.629Z,13.2
2023-04-04T16:29:58.629Z,12.9
2023-04-04T16:32:24.823Z,12.9
2023-04-04T16:34:50.895Z,12.4
2023-04-04T16:37:17.060Z,11.8
2023-04-04T16:42:09.026Z,11.5
2023-04-04T16:44:35.278Z,11.4
2023-04-04T16:47:01.300Z,11.5
2023-04-04T16:49:27.492Z,11.7
2023-04-04T16:51:53.567Z,11.5
2023-04-04T16:54:19.688Z,11.1
2023-04-04T16:56:44.797Z,10.7
2023-04-04T16:59:10.805Z,10.3
2023-04-04T17:01:36.990Z,9.5
2023-04-04T17:04:03.123Z,9.3
2023-04-04T17:06:28.991Z,9
2023-04-04T17:08:55.268Z,8.8
2023-04-04T17:11:20.358Z,8.6
2023-04-04T17:13:46.453Z,8.4
2023-04-04T17:16:12.391Z,8.4
2023-04-04T17:18:38.542Z,8.3
2023-04-04T17:21:04.753Z,8.3
2023-04-04T17:23:30.853Z,8.2
2023-04-04T17:25:56.894Z,8.1
2023-04-04T17:28:22.879Z,8
2023-04-04T17:30:49.174Z,8
2023-04-04T17:33:15.068Z,7.9
2023-04-04T17:35:41.168Z,7.9
2023-04-04T17:38:07.404Z,7.9
2023-04-04T17:40:33.344Z,7.8
2023-04-04T17:42:58.464Z,7.7
2023-04-04T17:45:24.738Z,7.7
2023-04-04T17:47:50.859Z,7.6
2023-04-04T17:50:16.920Z,7.5
2023-04-04T17:52:42.983Z,7.4
2023-04-04T17:55:09.020Z,7.4
2023-04-04T17:57:35.261Z,7.3
2023-04-04T18:00:01.398Z,7.3
2023-04-04T18:02:27.354Z,7.2
2023-04-04T18:04:53.532Z,7.1
2023-04-04T18:07:19.615Z,7.1
2023-04-04T18:09:45.685Z,7
2023-04-04T18:12:11.711Z,6.9
2023-04-04T18:14:36.726Z,6.9
2023-04-04T18:17:03.156Z,6.8
2023-04-04T18:19:29.058Z,6.8
2023-04-04T18:21:55.195Z,6.6
2023-04-04T18:24:21.101Z,6.4
2023-04-04T18:26:47.359Z,6.2
2023-04-04T18:29:13.307Z,6
2023-04-04T18:31:39.557Z,5.7
2023-04-04T18:34:05.492Z,5.5
2023-04-04T18:36:31.794Z,5.4
2023-04-04T18:38:57.849Z,5.2
2023-04-04T18:41:23.940Z,5.1
2023-04-04T18:43:49.913Z,5
2023-04-04T18:46:15.022Z,4.8
2023-04-04T18:48:41.116Z,4.6
2023-04-04T18:51:07.263Z,4.6
2023-04-04T18:53:33.289Z,4.6
2023-04-04T18:55:59.456Z,4.6
2023-04-04T18:58:25.478Z,4.5
2023-04-04T19:00:51.561Z,4.4
2023-04-04T19:03:17.849Z,4.4
2023-04-04T19:05:43.916Z,4.3
2023-04-04T19:08:09.843Z,4.3
2023-04-04T19:10:36.101Z,4.2
2023-04-04T19:13:02.205Z,4.2
2023-04-04T19:15:28.142Z,4.1
2023-04-04T19:17:54.368Z,4
2023-04-04T19:20:20.505Z,4
2023-04-04T19:22:46.585Z,4
2023-04-04T19:25:12.700Z,3.9
2023-04-04T19:27:38.807Z,3.8
2023-04-04T19:30:04.905Z,3.8
2023-04-04T19:32:29.925Z,3.7
2023-04-04T19:34:55.996Z,3.7
2023-04-04T19:37:22.009Z,3.6
2023-04-04T19:39:48.278Z,3.6
2023-04-04T19:42:14.302Z,3.5
2023-04-04T19:44:40.401Z,3.5
2023-04-04T19:47:06.609Z,3.4
2023-04-04T19:49:32.530Z,3.4
2023-04-04T19:51:58.600Z,3.4
2023-04-04T19:54:24.906Z,3.5
2023-04-04T19:56:50.799Z,3.4
2023-04-04T19:59:16.871Z,3.4
2023-04-04T20:01:43.151Z,3.2
2023-04-04T20:04:08.292Z,3.1
2023-04-04T20:06:34.313Z,3
2023-04-04T20:09:00.434Z,2.9
2023-04-04T20:11:26.384Z,2.9
2023-04-04T20:13:52.461Z,2.9
2023-04-04T20:16:18.577Z,2.9
2023-04-04T20:18:44.686Z,2.8
2023-04-04T20:21:10.787Z,2.8
2023-04-04T20:23:37.011Z,2.8
2023-04-04T20:26:03.072Z,2.9
2023-04-04T20:28:29.046Z,2.8
2023-04-04T20:30:55.196Z,2.7
2023-04-04T20:33:21.398Z,2.7
2023-04-04T20:35:46.519Z,2.7
2023-04-04T20:38:12.621Z,2.6
2023-04-04T20:40:38.589Z,2.6
2023-04-04T20:43:04.691Z,2.5
2023-04-04T20:45:30.755Z,2.4
2023-04-04T20:47:57.032Z,2.4
2023-04-04T20:50:23.039Z,2.4
2023-04-04T20:52:49.176Z,2.3
2023-04-04T20:55:15.217Z,2.3
2023-04-04T20:57:41.287Z,2.2
2023-04-04T21:00:07.313Z,2.2
2023-04-04T21:02:33.556Z,2.2
2023-04-04T21:04:59.532Z,2.2
2023-04-04T21:07:24.783Z,2.1
2023-04-04T21:09:50.897Z,2.1
2023-04-04T21:12:16.890Z,2
2023-04-04T21:14:43.074Z,2
2023-04-04T21:17:09.177Z,1.9
2023-04-04T21:19:35.137Z,1.9
2023-04-04T21:22:01.242Z,1.8
2023-04-04T21:24:27.307Z,1.9
2023-04-04T21:26:53.405Z,1.8
2023-04-04T21:29:19.506Z,1.8
2023-04-04T21:31:45.652Z,1.7
2023-04-04T21:34:11.865Z,1.7
2023-04-04T21:36:37.850Z,1.7
2023-04-04T21:39:03.100Z,1.6
2023-04-04T21:41:28.985Z,1.5
2023-04-04T21:43:55.171Z,1.4
2023-04-04T21:46:21.202Z,1.4
2023-04-04T21:48:47.409Z,1.4
2023-04-04T21:51:13.520Z,1.3
2023-04-04T21:53:39.485Z,1.4
2023-04-04T21:56:05.653Z,1.3
2023-04-04T21:58:31.832Z,1.3
2023-04-04T22:00:57.785Z,1.3
2023-04-04T22:03:24.019Z,1.2
2023-04-04T22:05:50.088Z,1.2
2023-04-04T22:08:16.256Z,1.2
2023-04-04T22:10:41.231Z,1.1
2023-04-04T22:13:07.427Z,1.1
2023-04-04T22:15:33.485Z,1.1
2023-04-04T22:17:59.645Z,1
2023-04-04T22:20:25.581Z,0.9
2023-04-04T22:22:51.758Z,0.9
2023-04-04T22:25:17.930Z,0.9
2023-04-04T22:27:43.993Z,0.9
2023-04-04T22:30:10.124Z,1
2023-04-04T22:32:36.197Z,0.9
2023-04-04T22:35:02.324Z,0.9
2023-04-04T22:37:28.447Z,0.9
2023-04-04T22:39:54.516Z,0.9
2023-04-04T22:42:19.537Z,0.9
2023-04-04T22:44:45.589Z,1
2023-04-04T22:47:11.670Z,0.9
2023-04-04T22:49:37.837Z,0.9
2023-04-04T22:52:03.939Z,0.8
2023-04-04T22:54:29.960Z,0.8
2023-04-04T22:56:56.231Z,0.8
2023-04-04T22:59:22.153Z,0.7
2023-04-04T23:01:48.432Z,0.7
2023-04-04T23:04:14.599Z,0.7
2023-04-04T23:06:40.496Z,0.7
2023-04-04T23:09:06.748Z,0.7
2023-04-04T23:11:32.862Z,0.8
2023-04-04T23:13:57.804Z,0.8
2023-04-04T23:16:24.023Z,0.7
2023-04-04T23:18:50.152Z,0.6
2023-04-04T23:21:16.267Z,0.6
2023-04-04T23:23:42.139Z,0.6
2023-04-04T23:26:08.265Z,0.5
2023-04-04T23:28:34.462Z,0.5
2023-04-04T23:31:00.607Z,0.5
2023-04-04T23:33:26.561Z,0.5
2023-04-04T23:35:52.662Z,0.5
2023-04-04T23:38:18.879Z,0.4
2023-04-04T23:40:44.968Z,0.4
2023-04-04T23:43:11.070Z,0.4
2023-04-04T23:45:36.232Z,0.3
2023-04-04T23:48:02.138Z,0.3
2023-04-04T23:50:28.227Z,0.4
2023-04-04T23:52:54.319Z,0.5
2023-04-04T23:55:20.596Z,0.5
2023-04-04T23:57:46.767Z,0.6
